createdAt,value
2019-01-26T00:01:04.726Z,77275.34
2019-01-26T00:03:36.282Z,77280.37
2019-01-26T00:06:08.110Z,77261.27
2019-01-26T00:08:39.430Z,77267.30
2019-01-26T00:11:10.953Z,77259.25
2019-01-26T00:13:42.354Z,77256.23
2019-01-26T00:16:13.717Z,77238.14
2019-01-26T00:18:45.135Z,77239.15
2019-01-26T00:21:16.556Z,77220.05
2019-01-26T00:23:47.870Z,77227.08
2019-01-26T00:26:19.179Z,77214.02
2019-01-26T00:28:50.393Z,77186.88
2019-01-26T00:31:21.760Z,77185.87
2019-01-26T00:33:53.305Z,77181.84
2019-01-26T00:36:24.569Z,77165.77
2019-01-26T00:38:55.864Z,77169.78
2019-01-26T00:41:27.109Z,77177.83
2019-01-26T00:43:58.386Z,77158.73
2019-01-26T00:46:29.636Z,77167.77
2019-01-26T00:49:00.887Z,77166.77
2019-01-26T00:51:32.174Z,77178.83
2019-01-26T00:54:03.463Z,77175.81
2019-01-26T00:56:34.830Z,77175.81
2019-01-26T00:59:06.548Z,77163.75
2019-01-26T01:01:37.833Z,77135.61
2019-01-26T01:04:09.212Z,77143.65
2019-01-26T01:06:40.628Z,77137.62
2019-01-26T01:09:16.977Z,77121.53
2019-01-26T01:11:57.590Z,77113.48
2019-01-26T01:14:38.882Z,77117.52
2019-01-26T01:17:24.338Z,77109.47
2019-01-26T01:20:01.087Z,77097.41
2019-01-26T01:22:33.501Z,77083.33
2019-01-26T01:25:05.750Z,77085.34
2019-01-26T01:27:37.110Z,77089.36
2019-01-26T01:30:11.445Z,77085.34
2019-01-26T01:32:42.786Z,77083.33
2019-01-26T01:35:14.286Z,77065.23
2019-01-26T01:37:45.593Z,77069.26
2019-01-26T01:40:17.502Z,77067.25
2019-01-26T01:42:48.834Z,77065.23
2019-01-26T01:45:21.205Z,77060.22
2019-01-26T01:47:52.629Z,77053.17
2019-01-26T01:50:23.988Z,77051.16
2019-01-26T01:52:55.289Z,77043.13
2019-01-26T01:55:26.597Z,77053.17
2019-01-26T01:57:57.887Z,77045.13
2019-01-26T02:00:29.643Z,77046.14
2019-01-26T02:03:01.046Z,77050.16
2019-01-26T02:05:32.438Z,77073.28
2019-01-26T02:08:03.790Z,77060.22
2019-01-26T02:10:35.343Z,77026.03
2019-01-26T02:13:06.957Z,77020.00
2019-01-26T02:15:41.606Z,77033.08
2019-01-26T02:18:12.894Z,77031.06
2019-01-26T02:20:44.175Z,77031.06
2019-01-26T02:23:15.510Z,77037.09
2019-01-26T02:25:46.719Z,77039.11
2019-01-26T02:28:18.038Z,77039.11
2019-01-26T02:30:49.504Z,77032.06
2019-01-26T02:33:20.902Z,77040.11
2019-01-26T02:35:52.125Z,77041.11
2019-01-26T02:38:25.442Z,77037.09
2019-01-26T02:40:56.838Z,77039.11
2019-01-26T02:43:28.192Z,77047.14
2019-01-26T02:45:59.687Z,77043.13
2019-01-26T02:48:31.072Z,77051.16
2019-01-26T02:51:02.363Z,77045.13
2019-01-26T02:53:33.711Z,77041.11
2019-01-26T02:56:04.997Z,77049.16
2019-01-26T02:58:36.308Z,77041.11
2019-01-26T03:01:07.824Z,77048.15
2019-01-26T03:03:40.783Z,77050.16
2019-01-26T03:06:12.261Z,77037.09
2019-01-26T03:08:43.535Z,77043.13
2019-01-26T03:11:14.899Z,77030.05
2019-01-26T03:13:46.245Z,77016.98
2019-01-26T03:16:17.589Z,77023.02
2019-01-26T03:18:48.866Z,77010.95
2019-01-26T03:21:20.226Z,77004.92
2019-01-26T03:23:51.683Z,76994.88
2019-01-26T03:26:23.278Z,76992.86
2019-01-26T03:28:54.554Z,76988.84
2019-01-26T03:31:25.850Z,76980.80
2019-01-26T03:33:57.298Z,76981.80
2019-01-26T03:36:28.744Z,76974.77
2019-01-26T03:39:00.111Z,76956.67
2019-01-26T03:41:31.659Z,76954.66
2019-01-26T03:44:03.058Z,76949.64
2019-01-26T03:46:34.358Z,76958.69
2019-01-26T03:49:05.803Z,76969.75
2019-01-26T03:51:37.117Z,76952.66
2019-01-26T03:54:08.503Z,76945.63
2019-01-26T03:56:39.807Z,76959.69
2019-01-26T03:59:11.188Z,76948.64
2019-01-26T04:01:43.653Z,76942.60
2019-01-26T04:04:15.029Z,76940.59
2019-01-26T04:06:46.394Z,76930.55
2019-01-26T04:09:17.706Z,76924.52
2019-01-26T04:11:48.935Z,76924.52
2019-01-26T04:14:20.402Z,76925.52
2019-01-26T04:16:51.740Z,76919.48
2019-01-26T04:19:23.087Z,76915.47
2019-01-26T04:21:54.459Z,76900.39
2019-01-26T04:24:25.734Z,76901.39
2019-01-26T04:26:57.009Z,76899.38
2019-01-26T04:29:28.277Z,76893.34
2019-01-26T04:31:59.513Z,76889.33
2019-01-26T04:34:30.813Z,76882.30
2019-01-26T04:37:02.013Z,76884.30
2019-01-26T04:39:33.321Z,76878.27
2019-01-26T04:42:04.646Z,76866.21
2019-01-26T04:44:35.907Z,76866.21
2019-01-26T04:47:07.164Z,76860.18
2019-01-26T04:49:38.485Z,76858.17
2019-01-26T04:52:09.882Z,76850.13
2019-01-26T04:54:41.106Z,76843.09
2019-01-26T04:57:12.351Z,76840.08
2019-01-26T04:59:43.571Z,76845.10
2019-01-26T05:02:15.010Z,76834.05
2019-01-26T05:04:46.380Z,76837.06
2019-01-26T05:07:17.779Z,76834.05
2019-01-26T05:09:49.087Z,76821.98
2019-01-26T05:12:20.391Z,76821.98
2019-01-26T05:14:51.795Z,76807.91
2019-01-26T05:17:23.064Z,76814.95
2019-01-26T05:19:54.277Z,76815.95
2019-01-26T05:22:25.586Z,76825.00
2019-01-26T05:24:56.822Z,76831.03
2019-01-26T05:27:28.170Z,76834.05
2019-01-26T05:29:59.501Z,76817.96
2019-01-26T05:32:30.831Z,76825.00
2019-01-26T05:35:02.142Z,76822.98
2019-01-26T05:37:33.431Z,76822.98
2019-01-26T05:40:05.061Z,76808.91
2019-01-26T05:42:36.360Z,76804.89
2019-01-26T05:45:10.585Z,76817.96
2019-01-26T05:47:48.096Z,76802.88
2019-01-26T05:50:22.613Z,76815.95
2019-01-26T05:52:54.336Z,76814.95
2019-01-26T05:55:25.770Z,76807.91
2019-01-26T05:57:57.169Z,76818.97
2019-01-26T06:00:36.685Z,76815.95
2019-01-26T06:03:08.089Z,76808.91
2019-01-26T06:05:39.368Z,76799.88
2019-01-26T06:08:10.791Z,76799.88
2019-01-26T06:10:42.214Z,76789.82
2019-01-26T06:13:13.567Z,76780.77
2019-01-26T06:15:44.908Z,76774.74
2019-01-26T06:18:17.093Z,76780.77
2019-01-26T06:20:48.540Z,76774.74
2019-01-26T06:23:19.779Z,76775.75
2019-01-26T06:25:51.152Z,76783.78
2019-01-26T06:28:22.371Z,76778.77
2019-01-26T06:30:53.709Z,76774.74
2019-01-26T06:33:25.053Z,76785.80
2019-01-26T06:35:56.318Z,76776.75
2019-01-26T06:38:27.574Z,76767.70
2019-01-26T06:40:58.794Z,76767.70
2019-01-26T06:43:30.132Z,76763.69
2019-01-26T06:46:01.327Z,76769.72
2019-01-26T06:48:32.604Z,76755.64
2019-01-26T06:51:03.918Z,76748.61
2019-01-26T06:53:35.191Z,76755.64
2019-01-26T06:56:06.667Z,76755.64
2019-01-26T06:58:37.985Z,76763.69
2019-01-26T07:01:09.255Z,76756.65
2019-01-26T07:03:40.577Z,76754.64
2019-01-26T07:06:22.232Z,76759.66
2019-01-26T07:08:53.523Z,76758.66
2019-01-26T07:11:25.077Z,76757.66
2019-01-26T07:13:57.919Z,76763.69
2019-01-26T07:16:29.266Z,76750.62
2019-01-26T07:19:00.615Z,76756.65
2019-01-26T07:21:31.994Z,76753.63
2019-01-26T07:24:03.261Z,76760.67
2019-01-26T07:26:41.994Z,76765.70
2019-01-26T07:29:14.306Z,76765.70
2019-01-26T07:31:45.731Z,76767.70
2019-01-26T07:34:17.112Z,76761.67
2019-01-26T07:36:48.331Z,76762.68
2019-01-26T07:39:20.167Z,76777.76
2019-01-26T07:41:52.002Z,76763.69
2019-01-26T07:44:23.392Z,76768.71
2019-01-26T07:46:54.747Z,76767.70
2019-01-26T07:49:26.072Z,76769.72
2019-01-26T07:51:57.397Z,76762.68
2019-01-26T07:54:28.562Z,76758.66
2019-01-26T07:57:01.013Z,76747.60
2019-01-26T07:59:32.359Z,76762.68
2019-01-26T08:02:03.709Z,76769.72
2019-01-26T08:04:35.145Z,76760.67
2019-01-26T08:07:16.238Z,76753.63
2019-01-26T08:09:47.543Z,76756.65
2019-01-26T08:12:18.823Z,76756.65
2019-01-26T08:14:50.088Z,76746.59
2019-01-26T08:17:21.326Z,76744.59
2019-01-26T08:19:52.515Z,76743.58
2019-01-26T08:22:23.864Z,76738.55
2019-01-26T08:24:56.967Z,76750.62
2019-01-26T08:27:28.302Z,76745.59
2019-01-26T08:29:59.619Z,76736.55
2019-01-26T08:32:30.909Z,76738.55
2019-01-26T08:35:02.243Z,76751.63
2019-01-26T08:37:33.541Z,76756.65
2019-01-26T08:40:05.224Z,76756.65
2019-01-26T08:42:36.598Z,76766.70
2019-01-26T08:45:11.214Z,76760.67
2019-01-26T08:47:45.312Z,76752.63
2019-01-26T08:50:26.329Z,76757.66
2019-01-26T08:53:02.178Z,76754.64
2019-01-26T08:55:37.696Z,76761.67
2019-01-26T08:58:09.119Z,76753.63
2019-01-26T09:00:40.390Z,76757.66
2019-01-26T09:03:42.807Z,76761.67
2019-01-26T09:06:39.026Z,76759.66
2019-01-26T09:09:15.267Z,76761.67
2019-01-26T09:11:46.856Z,76765.70
2019-01-26T09:14:18.117Z,76772.73
2019-01-26T09:16:49.379Z,76770.72
2019-01-26T09:19:20.757Z,76770.72
2019-01-26T09:21:52.182Z,76781.78
2019-01-26T09:24:23.493Z,76788.81
2019-01-26T09:26:54.797Z,76777.76
2019-01-26T09:29:26.133Z,76778.77
2019-01-26T09:31:57.377Z,76767.70
2019-01-26T09:34:28.874Z,76779.77
2019-01-26T09:37:00.247Z,76777.76
2019-01-26T09:39:31.549Z,76787.81
2019-01-26T09:42:02.983Z,76783.78
2019-01-26T09:44:34.229Z,76780.77
2019-01-26T09:47:05.595Z,76785.80
2019-01-26T09:49:36.975Z,76777.76
2019-01-26T09:52:26.890Z,76780.77
2019-01-26T09:54:58.273Z,76777.76
2019-01-26T09:57:30.204Z,76778.77
2019-01-26T10:00:01.553Z,76783.78
2019-01-26T10:02:32.802Z,76780.77
2019-01-26T10:05:04.204Z,76783.78
2019-01-26T10:07:35.541Z,76794.84
2019-01-26T10:10:07.749Z,76777.76
2019-01-26T10:12:39.150Z,76772.73
2019-01-26T10:15:13.701Z,76773.73
2019-01-26T10:17:46.186Z,76778.77
2019-01-26T10:20:27.101Z,76766.70
2019-01-26T10:22:58.543Z,76769.72
2019-01-26T10:25:29.681Z,76767.70
2019-01-26T10:28:01.281Z,76764.69
2019-01-26T10:30:39.767Z,76771.73
2019-01-26T10:33:11.268Z,76768.71
2019-01-26T10:36:16.831Z,76756.65
2019-01-26T10:39:08.542Z,76763.69
2019-01-26T10:41:46.178Z,76761.67
2019-01-26T10:44:32.457Z,76744.59
2019-01-26T10:47:03.826Z,76750.62
2019-01-26T10:49:35.216Z,76749.61
2019-01-26T10:52:06.892Z,76745.59
2019-01-26T10:54:38.246Z,76745.59
2019-01-26T10:57:09.806Z,76751.63
2019-01-26T10:59:41.161Z,76749.61
2019-01-26T11:02:12.700Z,76744.59
2019-01-26T11:04:44.057Z,76743.58
2019-01-26T11:07:15.892Z,76732.52
2019-01-26T11:09:47.117Z,76735.54
2019-01-26T11:12:20.001Z,76733.53
2019-01-26T11:14:51.386Z,76719.45
2019-01-26T11:17:22.781Z,76694.33
2019-01-26T11:19:54.241Z,76695.34
2019-01-26T11:22:25.433Z,76684.28
2019-01-26T11:24:56.826Z,76681.27
2019-01-26T11:27:28.256Z,76689.30
2019-01-26T11:30:00.870Z,76680.27
2019-01-26T11:32:32.200Z,76680.27
2019-01-26T11:35:03.671Z,76689.30
2019-01-26T11:37:34.919Z,76688.30
2019-01-26T11:40:17.246Z,76679.25
2019-01-26T11:42:48.636Z,76668.20
2019-01-26T11:45:30.553Z,76657.14
2019-01-26T11:48:03.087Z,76657.14
2019-01-26T11:50:39.945Z,76663.17
2019-01-26T11:53:11.334Z,76637.04
2019-01-26T11:56:01.429Z,76622.97
2019-01-26T11:58:32.814Z,76618.95
2019-01-26T12:01:21.634Z,76620.95
2019-01-26T12:04:01.455Z,76602.87
2019-01-26T12:06:39.331Z,76598.84
2019-01-26T12:09:12.991Z,76589.80
2019-01-26T12:11:44.477Z,76576.73
2019-01-26T12:14:18.167Z,76574.72
2019-01-26T12:16:49.476Z,76576.73
2019-01-26T12:19:22.481Z,76574.72
2019-01-26T12:21:54.030Z,76574.72
2019-01-26T12:27:23.098Z,76558.64
2019-01-26T12:29:55.075Z,76558.64
2019-01-26T12:32:26.723Z,76569.70
2019-01-26T12:34:57.965Z,76577.73
2019-01-26T12:37:29.243Z,76577.73
2019-01-26T12:40:00.655Z,76571.70
2019-01-26T12:42:32.452Z,76548.59
2019-01-26T12:45:22.685Z,76536.53
2019-01-26T12:47:54.179Z,76534.52
2019-01-26T12:50:25.626Z,76535.52
2019-01-26T12:52:56.987Z,76522.46
2019-01-26T12:55:28.949Z,76495.32
2019-01-26T12:58:06.728Z,76477.23
2019-01-26T13:00:38.151Z,76472.20
2019-01-26T13:03:09.488Z,76473.21
2019-01-26T13:05:43.662Z,76487.28
2019-01-26T13:08:15.326Z,76489.30
2019-01-26T13:10:59.658Z,76487.28
2019-01-26T13:13:31.159Z,76483.27
2019-01-26T13:16:02.472Z,76486.28
2019-01-26T13:18:34.154Z,76494.31
2019-01-26T13:21:11.861Z,76481.25
2019-01-26T13:23:43.519Z,76480.25
2019-01-26T13:26:14.907Z,76478.23
2019-01-26T13:28:46.300Z,76460.15
2019-01-26T13:31:18.843Z,76475.22
2019-01-26T13:33:50.242Z,76469.19
2019-01-26T13:36:24.210Z,76472.20
